Time;durP1;ratioP1;P1;durP2;ratioP2;P2;SDS_P1;SDS_P2;PMS_P1;PMS_P2;Temp;Humidity;BMP_temperature;BMP_pressure;BME280_temperature;BME280_humidity;BME280_pressure;Samples;Min_cycle;Max_cycle;Signal;HPM_P1;HPM_P2
2021/06/27 17:25:50;;;;;;;8.83;4.85;;;;;;;25.44;65.00;100536.84;1734962;80;20997;-58
2021/06/27 17:28:31;;;;;;;6.67;4.70;;;;;;;25.37;65.17;100537.12;1689434;82;21087;-59
2021/06/27 17:30:59;;;;;;;8.13;4.80;;;;;;;25.29;65.46;100537.03;1767335;79;21168;-58
2021/06/27 17:33:25;;;;;;;11.22;5.15;;;;;;;25.23;65.77;100536.28;1783914;78;20933;-60
2021/06/27 17:35:53;;;;;;;15.30;5.25;;;;;;;25.18;66.07;100543.11;1783411;78;21029;-60
2021/06/27 17:38:19;;;;;;;9.45;5.30;;;;;;;25.14;66.53;100541.70;1787348;78;21545;-60
2021/06/27 17:40:47;;;;;;;11.15;5.25;;;;;;;25.09;66.76;100536.31;1788315;78;20992;-59
2021/06/27 17:43:13;;;;;;;13.43;5.70;;;;;;;25.01;67.19;100540.70;1783794;78;20937;-59
2021/06/27 17:45:40;;;;;;;10.15;5.37;;;;;;;24.94;67.58;100544.20;1782446;78;20905;-58
2021/06/27 17:48:07;;;;;;;12.53;5.67;;;;;;;24.88;68.08;100540.19;1785467;78;21083;-58
2021/06/27 17:50:34;;;;;;;7.70;5.53;;;;;;;24.81;68.53;100549.52;1774505;78;21051;-59
2021/06/27 17:53:00;;;;;;;8.53;5.17;;;;;;;24.75;68.92;100552.34;1774064;78;20896;-58
2021/06/27 17:55:27;;;;;;;10.25;5.20;;;;;;;24.71;69.50;100545.94;1794377;78;21893;-58
2021/06/27 17:57:53;;;;;;;10.93;5.10;;;;;;;24.65;69.89;100545.16;1785202;78;21075;-58
2021/06/27 18:00:21;;;;;;;12.20;5.25;;;;;;;24.59;70.32;100552.97;1780970;77;21543;-57
2021/06/27 18:02:48;;;;;;;9.35;6.08;;;;;;;24.53;70.68;100552.70;1792477;77;20978;-59
2021/06/27 18:08:37;;;;;;;11.15;5.22;;;;;;;24.42;71.78;100561.48;1748739;79;21013;-60
2021/06/27 18:11:08;;;;;;;7.05;4.85;;;;;;;24.34;72.52;100555.90;1783652;78;20988;-60
2021/06/27 18:13:36;;;;;;;7.47;5.50;;;;;;;24.30;73.00;100567.64;1737784;80;21021;-60
2021/06/27 18:16:05;;;;;;;8.00;4.75;;;;;;;24.26;73.37;100568.95;1787287;78;21428;-60
2021/06/27 18:18:31;;;;;;;13.28;5.75;;;;;;;24.23;73.84;100576.11;1792392;78;20917;-60
2021/06/27 18:20:58;;;;;;;12.55;5.53;;;;;;;24.21;74.08;100579.50;1787025;77;21298;-59
2021/06/27 18:23:25;;;;;;;10.60;5.67;;;;;;;24.18;74.21;100579.77;1786527;78;21465;-59
2021/06/27 18:25:53;;;;;;;10.75;5.87;;;;;;;24.14;74.46;100579.22;1786686;78;21016;-60
2021/06/27 18:28:21;;;;;;;11.03;5.80;;;;;;;24.11;74.79;100578.64;1786169;78;21005;-58
2021/06/27 18:30:49;;;;;;;8.43;5.42;;;;;;;24.06;75.08;100586.44;1782121;78;21499;-59
2021/06/27 18:33:17;;;;;;;14.95;6.47;;;;;;;23.99;75.39;100585.63;1777780;79;21155;-58
2021/06/27 18:35:44;;;;;;;12.07;6.15;;;;;;;23.94;75.50;100590.65;1781574;78;21111;-59
2021/06/27 18:38:11;;;;;;;10.98;6.00;;;;;;;23.90;75.54;100593.33;1775385;79;21052;-59
2021/06/27 18:40:38;;;;;;;7.80;5.60;;;;;;;23.86;75.66;100594.62;1779321;79;20909;-59
2021/06/27 18:43:06;;;;;;;11.40;5.67;;;;;;;23.83;75.71;100594.92;1777017;78;21044;-60
2021/06/27 18:45:33;;;;;;;7.80;5.80;;;;;;;23.81;75.62;100596.94;1777644;79;21077;-60
2021/06/27 18:48:00;;;;;;;10.93;5.58;;;;;;;23.77;75.63;100602.35;1785429;79;22231;-60
2021/06/27 18:50:26;;;;;;;10.55;6.05;;;;;;;23.77;75.78;100600.98;1784822;78;21065;-60
2021/06/27 18:52:53;;;;;;;14.85;5.80;;;;;;;23.72;75.83;100596.78;1772667;79;21059;-60
2021/06/27 18:55:20;;;;;;;11.55;5.92;;;;;;;23.71;76.07;100601.05;1785492;79;21032;-61
2021/06/27 18:57:46;;;;;;;9.98;5.92;;;;;;;23.69;76.30;100606.65;1780530;79;21091;-59
2021/06/27 19:00:14;;;;;;;9.43;5.67;;;;;;;23.65;76.25;100602.48;1780137;79;21341;-59
2021/06/27 19:02:41;;;;;;;11.80;5.95;;;;;;;23.62;76.40;100606.87;1779096;79;21039;-61
2021/06/27 19:05:09;;;;;;;7.85;5.65;;;;;;;23.57;76.48;100609.17;1776803;79;21562;-59
2021/06/27 19:07:36;;;;;;;8.90;5.33;;;;;;;23.53;76.51;100609.95;1770178;78;21025;-59
2021/06/27 19:10:07;;;;;;;14.75;5.60;;;;;;;23.48;76.66;100607.27;1783847;79;21108;-59
2021/06/27 19:12:34;;;;;;;12.73;5.72;;;;;;;23.44;77.00;100614.41;1780384;78;21013;-60
2021/06/27 19:15:00;;;;;;;7.47;5.20;;;;;;;23.42;77.26;100611.43;1777420;79;21537;-58
2021/06/27 19:17:30;;;;;;;8.55;5.40;;;;;;;23.37;77.37;100610.52;1779871;78;22175;-60
2021/06/27 19:19:57;;;;;;;12.18;5.70;;;;;;;23.33;77.58;100613.17;1778718;79;21546;-59
2021/06/27 19:22:24;;;;;;;8.48;5.30;;;;;;;23.29;77.83;100611.20;1711876;81;21103;-59
2021/06/27 19:24:51;;;;;;;11.05;5.40;;;;;;;23.27;78.11;100611.85;1710303;81;21035;-60
2021/06/27 19:27:18;;;;;;;7.45;5.42;;;;;;;23.22;78.34;100618.22;1726907;80;20979;-59
2021/06/27 19:29:44;;;;;;;8.60;5.30;;;;;;;23.17;78.58;100613.16;1737576;80;20977;-60
2021/06/27 19:32:11;;;;;;;9.38;5.30;;;;;;;23.14;78.78;100612.56;1755192;80;21035;-60
2021/06/27 19:34:41;;;;;;;8.00;5.53;;;;;;;23.10;79.12;100609.27;1739623;80;21063;-59
2021/06/27 19:37:08;;;;;;;9.50;5.58;;;;;;;23.08;79.29;100611.77;1748131;80;21426;-59
2021/06/27 19:39:37;;;;;;;11.60;6.03;;;;;;;23.07;79.51;100621.82;1744098;79;21657;-59
2021/06/27 19:42:05;;;;;;;9.33;5.85;;;;;;;23.06;79.74;100614.62;1743864;81;21013;-59
2021/06/27 19:44:32;;;;;;;11.75;6.05;;;;;;;23.02;79.91;100614.06;1733635;81;21643;-58
2021/06/27 19:46:59;;;;;;;9.08;5.90;;;;;;;23.00;80.14;100617.92;1780698;78;21458;-60
2021/06/27 19:49:26;;;;;;;7.75;5.33;;;;;;;22.96;80.33;100624.67;1781692;78;21455;-59
2021/06/27 19:51:53;;;;;;;12.65;5.90;;;;;;;22.93;80.50;100616.23;1770758;78;20937;-58
2021/06/27 19:54:19;;;;;;;7.97;5.65;;;;;;;22.90;80.79;100616.52;1768416;78;21443;-59
2021/06/27 19:56:49;;;;;;;6.67;5.28;;;;;;;22.87;80.90;100618.16;1786461;79;21006;-60
2021/06/27 19:59:17;;;;;;;6.92;5.50;;;;;;;22.86;81.05;100622.75;1777079;78;21100;-65
2021/06/27 20:01:50;;;;;;;8.60;5.50;;;;;;;22.84;81.24;100623.39;1772229;79;20973;-58
2021/06/27 20:04:12;;;;;;;8.25;5.60;;;;;;;22.83;81.44;100618.92;1766439;79;20996;-60
2021/06/27 20:06:39;;;;;;;7.35;5.95;;;;;;;22.82;81.59;100624.03;1771326;79;20960;-60
2021/06/27 20:09:05;;;;;;;8.58;5.65;;;;;;;22.80;81.85;100621.94;1762755;78;20980;-59
2021/06/27 20:11:32;;;;;;;6.78;5.33;;;;;;;22.80;81.99;100625.19;1769676;78;21154;-59
2021/06/27 20:14:00;;;;;;;12.50;6.05;;;;;;;22.74;82.22;100620.61;1771587;79;20894;-58
2021/06/27 20:16:28;;;;;;;8.15;5.22;;;;;;;22.71;82.52;100629.08;1772792;78;21272;-59
2021/06/27 20:18:57;;;;;;;7.40;5.40;;;;;;;22.70;82.97;100627.88;1770895;78;21661;-60
2021/06/27 20:21:23;;;;;;;11.35;5.47;;;;;;;22.65;83.34;100629.64;1783302;79;21030;-59
2021/06/27 20:23:53;;;;;;;11.25;5.50;;;;;;;22.61;83.79;100631.77;1775419;78;21132;-60
2021/06/27 20:26:18;;;;;;;9.48;5.72;;;;;;;22.58;84.07;100630.67;1764385;79;21068;-60
2021/06/27 20:28:45;;;;;;;7.67;5.55;;;;;;;22.55;84.25;100628.22;1777935;78;21103;-60
2021/06/27 20:31:12;;;;;;;11.83;5.92;;;;;;;22.54;84.45;100629.70;1768027;80;20953;-59
2021/06/27 20:33:38;;;;;;;7.78;6.08;;;;;;;22.52;84.65;100628.49;1760715;80;21013;-59
2021/06/27 20:36:05;;;;;;;7.72;5.65;;;;;;;22.50;84.80;100629.61;1771292;79;21502;-58
2021/06/27 20:38:32;;;;;;;13.13;6.28;;;;;;;22.46;85.01;100641.30;1761744;80;21029;-59
2021/06/27 20:40:58;;;;;;;11.53;6.15;;;;;;;22.44;85.23;100646.03;1763348;80;21881;-59
2021/06/27 20:43:25;;;;;;;8.05;6.15;;;;;;;22.41;85.50;100639.44;1762031;80;21039;-58
2021/06/27 20:45:52;;;;;;;8.83;6.40;;;;;;;22.39;85.57;100640.96;1763247;80;21406;-60
2021/06/27 20:48:18;;;;;;;8.33;6.05;;;;;;;22.34;85.67;100632.31;1764889;80;22058;-59
2021/06/27 20:50:45;;;;;;;9.85;6.17;;;;;;;22.34;85.79;100633.67;1692867;83;21350;-60
2021/06/27 20:53:12;;;;;;;13.53;6.47;;;;;;;22.31;85.92;100633.43;1759882;80;21009;-59
2021/06/27 20:55:39;;;;;;;9.58;6.45;;;;;;;22.29;85.99;100634.06;1760459;80;21562;-60
2021/06/27 20:58:05;;;;;;;13.93;5.97;;;;;;;22.28;86.15;100635.06;1762123;79;21085;-60
2021/06/27 21:00:34;;;;;;;9.48;6.40;;;;;;;22.28;86.22;100631.45;1754179;80;21815;-61
2021/06/27 21:03:00;;;;;;;11.73;5.90;;;;;;;22.27;86.26;100639.28;1765114;79;21495;-58
2021/06/27 21:05:27;;;;;;;9.43;6.62;;;;;;;22.24;86.30;100637.70;1761712;80;20922;-60
2021/06/27 21:07:54;;;;;;;9.65;6.65;;;;;;;22.24;86.36;100639.06;1768887;79;21367;-59
2021/06/27 21:10:22;;;;;;;11.60;5.75;;;;;;;22.22;86.54;100642.43;1700568;83;21101;-59
2021/06/27 21:12:49;;;;;;;12.55;6.20;;;;;;;22.20;86.55;100643.03;1761950;80;20972;-59
2021/06/27 21:15:16;;;;;;;10.03;6.33;;;;;;;22.17;86.62;100636.48;1759695;80;21465;-59
2021/06/27 21:17:44;;;;;;;11.50;6.95;;;;;;;22.16;86.63;100636.11;1760571;80;21037;-61
2021/06/27 21:20:11;;;;;;;9.60;6.70;;;;;;;22.15;86.69;100637.11;1768000;80;21001;-59
2021/06/27 21:22:40;;;;;;;8.25;7.00;;;;;;;22.14;86.76;100639.48;1763665;80;21890;-59
2021/06/27 21:25:11;;;;;;;13.78;6.90;;;;;;;22.13;86.95;100634.53;1760750;80;21101;-59
2021/06/27 21:27:42;;;;;;;12.35;6.75;;;;;;;22.11;87.07;100637.02;1705051;82;21667;-58
2021/06/27 21:30:10;;;;;;;11.88;7.58;;;;;;;22.07;87.23;100632.31;1727737;79;21296;-60
2021/06/27 21:32:37;;;;;;;14.80;7.95;;;;;;;22.02;87.57;100634.58;1772213;79;20969;-58
2021/06/27 21:35:06;;;;;;;10.93;7.05;;;;;;;21.98;87.77;100639.42;1778415;78;20996;-59
2021/06/27 21:37:33;;;;;;;16.82;7.97;;;;;;;21.96;87.97;100644.14;1761229;79;21867;-59
2021/06/27 21:40:00;;;;;;;12.88;6.83;;;;;;;21.94;88.11;100643.41;1774403;79;20961;-59
2021/06/27 21:42:27;;;;;;;11.30;7.67;;;;;;;21.92;88.10;100646.77;1769115;79;21142;-61
2021/06/27 21:44:53;;;;;;;13.65;7.00;;;;;;;21.92;88.25;100648.66;1778843;78;21494;-59
2021/06/27 21:47:20;;;;;;;15.35;7.80;;;;;;;21.89;88.56;100645.67;1769241;78;21052;-60
2021/06/27 21:49:48;;;;;;;18.55;7.53;;;;;;;21.88;88.59;100643.94;1773429;79;21767;-59
2021/06/27 21:52:15;;;;;;;14.68;7.17;;;;;;;21.87;88.59;100644.94;1778553;79;20913;-58
2021/06/27 21:54:42;;;;;;;12.10;6.97;;;;;;;21.86;88.68;100647.30;1779878;77;20889;-60
2021/06/27 21:57:09;;;;;;;9.65;7.00;;;;;;;21.85;88.61;100652.39;1763259;79;20956;-60
2021/06/27 21:59:35;;;;;;;12.78;6.83;;;;;;;21.82;88.58;100646.69;1763354;78;21501;-60
2021/06/27 22:02:03;;;;;;;10.43;6.87;;;;;;;21.80;88.77;100643.73;1778836;79;21769;-60
2021/06/27 22:04:30;;;;;;;11.97;7.33;;;;;;;21.78;88.83;100648.46;1784286;77;21302;-58
2021/06/27 22:06:56;;;;;;;13.38;6.72;;;;;;;21.75;88.97;100646.33;1762867;79;20929;-58
2021/06/27 22:09:23;;;;;;;11.40;8.20;;;;;;;21.75;89.05;100650.42;1775203;79;21476;-58
2021/06/27 22:11:51;;;;;;;10.65;7.33;;;;;;;21.73;89.16;100640.14;1762506;79;21380;-59
2021/06/27 22:14:17;;;;;;;11.68;6.92;;;;;;;21.72;89.37;100637.56;1777630;78;21562;-59
2021/06/27 22:16:45;;;;;;;9.88;6.95;;;;;;;21.68;89.47;100630.13;1774381;77;21000;-59
2021/06/27 22:19:12;;;;;;;11.40;7.40;;;;;;;21.66;89.69;100633.96;1778537;79;20980;-59
2021/06/27 22:21:39;;;;;;;10.82;7.05;;;;;;;21.63;89.97;100637.80;1767183;79;20993;-60
2021/06/27 22:24:06;;;;;;;10.10;7.30;;;;;;;21.59;90.00;100626.78;1767255;78;21616;-58
2021/06/27 22:26:33;;;;;;;12.18;7.20;;;;;;;21.56;90.09;100636.08;1765850;79;21370;-60
2021/06/27 22:29:00;;;;;;;8.83;6.95;;;;;;;21.52;90.40;100632.36;1763813;79;20898;-59
2021/06/27 22:31:27;;;;;;;12.35;7.35;;;;;;;21.49;90.49;100644.41;1770055;78;22422;-60
2021/06/27 22:33:54;;;;;;;10.82;6.78;;;;;;;21.47;90.70;100640.95;1762953;79;21651;-58
2021/06/27 22:36:20;;;;;;;8.68;7.00;;;;;;;21.44;90.81;100642.06;1775869;78;21072;-59
2021/06/27 22:38:47;;;;;;;10.48;7.00;;;;;;;21.43;90.92;100643.53;1784841;79;21073;-60
2021/06/27 22:41:13;;;;;;;9.00;7.25;;;;;;;21.39;91.17;100644.31;1779246;79;20977;-59
2021/06/27 22:43:40;;;;;;;10.58;7.53;;;;;;;21.38;91.36;100648.03;1773612;78;21685;-58
2021/06/27 22:46:08;;;;;;;11.78;7.25;;;;;;;21.34;91.52;100643.83;1785606;78;22047;-59
2021/06/27 22:48:35;;;;;;;15.28;7.53;;;;;;;21.32;91.68;100637.61;1768183;78;21501;-59
2021/06/27 22:51:02;;;;;;;16.57;8.28;;;;;;;21.30;91.81;100645.05;1775930;78;21043;-58
2021/06/27 22:53:28;;;;;;;15.40;7.47;;;;;;;21.28;91.89;100640.22;1774064;78;21476;-59
2021/06/27 22:55:55;;;;;;;14.00;6.65;;;;;;;21.26;91.90;100638.13;1772681;78;21064;-58
2021/06/27 22:58:22;;;;;;;10.10;7.05;;;;;;;21.26;92.00;100639.48;1774656;78;21532;-59
2021/06/27 23:00:48;;;;;;;11.30;6.55;;;;;;;21.25;92.04;100644.09;1775612;79;20929;-60
2021/06/27 23:03:15;;;;;;;12.43;6.67;;;;;;;21.23;92.09;100641.98;1776503;79;21059;-59
2021/06/27 23:05:42;;;;;;;16.48;7.78;;;;;;;21.22;92.13;100642.98;1770187;77;20946;-59
2021/06/27 23:08:08;;;;;;;10.63;6.60;;;;;;;21.21;92.37;100644.45;1771811;78;21397;-58
2021/06/27 23:10:35;;;;;;;11.73;6.40;;;;;;;21.18;92.26;100650.53;1774554;78;20974;-59
2021/06/27 23:13:03;;;;;;;11.88;6.83;;;;;;;21.15;92.45;100648.06;1785155;78;21060;-59
2021/06/27 23:15:32;;;;;;;11.40;6.67;;;;;;;21.13;92.60;100647.80;1769430;79;21439;-58
2021/06/27 23:17:58;;;;;;;11.10;6.85;;;;;;;21.12;92.64;100655.61;1778305;78;21019;-59
2021/06/27 23:20:25;;;;;;;10.05;6.47;;;;;;;21.11;92.49;100652.03;1776687;78;21373;-59
2021/06/27 23:22:51;;;;;;;11.83;6.40;;;;;;;21.10;92.48;100650.27;1777206;78;21771;-59
2021/06/27 23:25:18;;;;;;;8.93;6.10;;;;;;;21.09;92.40;100648.54;1770972;78;20957;-60
2021/06/27 23:27:44;;;;;;;15.83;6.97;;;;;;;21.07;92.34;100657.34;1765181;78;21133;-58
2021/06/27 23:30:12;;;;;;;11.78;6.62;;;;;;;21.05;92.21;100660.69;1695688;83;21139;-58
2021/06/27 23:32:39;;;;;;;9.90;6.03;;;;;;;21.03;92.19;100659.95;1760535;80;21569;-59
2021/06/27 23:35:09;;;;;;;13.65;6.40;;;;;;;21.00;92.39;100658.36;1756975;78;21169;-59
2021/06/27 23:37:36;;;;;;;11.95;6.45;;;;;;;20.98;92.40;100656.73;1757095;80;21268;-59
2021/06/27 23:40:03;;;;;;;10.80;6.30;;;;;;;20.98;92.43;100653.50;1748441;79;21084;-59
2021/06/27 23:42:30;;;;;;;9.68;6.00;;;;;;;20.97;92.49;100656.36;1739651;80;21166;-59
2021/06/27 23:44:57;;;;;;;9.10;6.35;;;;;;;20.96;92.48;100653.27;1746763;80;21139;-60
2021/06/27 23:47:25;;;;;;;11.12;6.45;;;;;;;20.94;92.52;100656.62;1760450;80;20949;-59
2021/06/27 23:49:52;;;;;;;12.75;6.65;;;;;;;20.94;92.65;100656.62;1751029;80;20994;-59
2021/06/27 23:52:19;;;;;;;10.32;6.00;;;;;;;20.93;92.59;100658.97;1754299;79;21118;-60
2021/06/27 23:54:45;;;;;;;16.23;6.30;;;;;;;20.89;92.73;100659.22;1753868;80;21009;-59
2021/06/27 23:57:13;;;;;;;8.50;5.90;;;;;;;20.87;92.83;100671.22;1748537;79;21537;-59
2021/06/27 23:59:40;;;;;;;11.33;6.58;;;;;;;20.84;92.95;100665.52;1746280;78;21601;-59
